sensor_id;sensor_type;location;lat;lon;timestamp;P1;durP1;ratioP1;P2;durP2;ratioP2
11313;SDS011;5712;48.858;9.206;2023-03-31T00:00:11;5.10;;;1.50;;
11313;SDS011;5712;48.858;9.206;2023-03-31T00:02:39;4.93;;;1.60;;
11313;SDS011;5712;48.858;9.206;2023-03-31T00:05:06;2.80;;;1.57;;
11313;SDS011;5712;48.858;9.206;2023-03-31T00:07:33;3.53;;;1.47;;
11313;SDS011;5712;48.858;9.206;2023-03-31T00:10:02;3.47;;;1.53;;
11313;SDS011;5712;48.858;9.206;2023-03-31T00:12:31;5.40;;;1.63;;
11313;SDS011;5712;48.858;9.206;2023-03-31T00:14:57;5.33;;;1.30;;
11313;SDS011;5712;48.858;9.206;2023-03-31T00:17:24;2.57;;;1.60;;
11313;SDS011;5712;48.858;9.206;2023-03-31T00:19:50;3.87;;;1.67;;
11313;SDS011;5712;48.858;9.206;2023-03-31T00:22:17;6.87;;;2.00;;
11313;SDS011;5712;48.858;9.206;2023-03-31T00:24:46;4.27;;;1.50;;
11313;SDS011;5712;48.858;9.206;2023-03-31T00:27:12;3.97;;;1.70;;
11313;SDS011;5712;48.858;9.206;2023-03-31T00:29:41;5.50;;;1.70;;
11313;SDS011;5712;48.858;9.206;2023-03-31T00:32:07;3.00;;;1.50;;
11313;SDS011;5712;48.858;9.206;2023-03-31T00:34:34;6.03;;;1.80;;
11313;SDS011;5712;48.858;9.206;2023-03-31T00:37:01;3.90;;;1.50;;
11313;SDS011;5712;48.858;9.206;2023-03-31T00:39:28;6.70;;;1.87;;
11313;SDS011;5712;48.858;9.206;2023-03-31T00:41:57;3.40;;;1.60;;
11313;SDS011;5712;48.858;9.206;2023-03-31T00:44:27;3.27;;;1.50;;
11313;SDS011;5712;48.858;9.206;2023-03-31T00:46:56;4.17;;;1.70;;
11313;SDS011;5712;48.858;9.206;2023-03-31T00:49:27;6.63;;;1.90;;
11313;SDS011;5712;48.858;9.206;2023-03-31T00:51:58;3.07;;;1.90;;
11313;SDS011;5712;48.858;9.206;2023-03-31T00:54:29;3.30;;;1.43;;
11313;SDS011;5712;48.858;9.206;2023-03-31T00:56:57;3.17;;;1.60;;
11313;SDS011;5712;48.858;9.206;2023-03-31T00:59:27;3.40;;;1.70;;
11313;SDS011;5712;48.858;9.206;2023-03-31T01:01:58;2.70;;;1.47;;
11313;SDS011;5712;48.858;9.206;2023-03-31T01:04:27;5.77;;;1.53;;
11313;SDS011;5712;48.858;9.206;2023-03-31T01:06:57;3.83;;;1.50;;
11313;SDS011;5712;48.858;9.206;2023-03-31T01:09:30;3.17;;;1.83;;
11313;SDS011;5712;48.858;9.206;2023-03-31T01:11:59;5.43;;;1.57;;
11313;SDS011;5712;48.858;9.206;2023-03-31T01:14:27;5.10;;;1.77;;
11313;SDS011;5712;48.858;9.206;2023-03-31T01:16:55;4.00;;;2.17;;
11313;SDS011;5712;48.858;9.206;2023-03-31T01:19:24;5.50;;;1.93;;
11313;SDS011;5712;48.858;9.206;2023-03-31T01:28:09;6.80;;;1.90;;
11313;SDS011;5712;48.858;9.206;2023-03-31T01:34:06;4.87;;;1.60;;
11313;SDS011;5712;48.858;9.206;2023-03-31T01:43:00;5.80;;;2.00;;
11313;SDS011;5712;48.858;9.206;2023-03-31T01:45:35;5.10;;;1.80;;
11313;SDS011;5712;48.858;9.206;2023-03-31T01:48:13;2.93;;;1.43;;
11313;SDS011;5712;48.858;9.206;2023-03-31T01:50:43;3.40;;;1.53;;
11313;SDS011;5712;48.858;9.206;2023-03-31T01:53:14;3.13;;;1.50;;
11313;SDS011;5712;48.858;9.206;2023-03-31T01:55:47;5.23;;;1.53;;
11313;SDS011;5712;48.858;9.206;2023-03-31T01:58:22;4.90;;;1.90;;
11313;SDS011;5712;48.858;9.206;2023-03-31T02:00:53;4.37;;;2.03;;
11313;SDS011;5712;48.858;9.206;2023-03-31T02:03:27;3.70;;;1.30;;
11313;SDS011;5712;48.858;9.206;2023-03-31T02:05:58;3.27;;;1.60;;
11313;SDS011;5712;48.858;9.206;2023-03-31T02:08:33;4.23;;;1.73;;
11313;SDS011;5712;48.858;9.206;2023-03-31T02:11:05;5.13;;;1.20;;
11313;SDS011;5712;48.858;9.206;2023-03-31T02:13:33;3.93;;;1.20;;
11313;SDS011;5712;48.858;9.206;2023-03-31T02:16:05;4.13;;;1.40;;
11313;SDS011;5712;48.858;9.206;2023-03-31T02:18:36;3.53;;;1.37;;
11313;SDS011;5712;48.858;9.206;2023-03-31T02:21:06;3.27;;;1.23;;
11313;SDS011;5712;48.858;9.206;2023-03-31T02:23:33;3.40;;;1.30;;
11313;SDS011;5712;48.858;9.206;2023-03-31T02:26:03;4.43;;;1.43;;
11313;SDS011;5712;48.858;9.206;2023-03-31T02:28:36;2.33;;;1.37;;
11313;SDS011;5712;48.858;9.206;2023-03-31T02:31:05;4.97;;;1.70;;
11313;SDS011;5712;48.858;9.206;2023-03-31T02:33:38;3.30;;;1.50;;
11313;SDS011;5712;48.858;9.206;2023-03-31T02:36:05;2.57;;;1.33;;
11313;SDS011;5712;48.858;9.206;2023-03-31T02:38:33;3.73;;;1.60;;
11313;SDS011;5712;48.858;9.206;2023-03-31T02:41:02;6.47;;;1.50;;
11313;SDS011;5712;48.858;9.206;2023-03-31T02:43:29;3.07;;;1.63;;
11313;SDS011;5712;48.858;9.206;2023-03-31T02:45:57;2.97;;;1.57;;
11313;SDS011;5712;48.858;9.206;2023-03-31T02:48:23;4.27;;;2.13;;
11313;SDS011;5712;48.858;9.206;2023-03-31T02:50:57;3.30;;;1.80;;
11313;SDS011;5712;48.858;9.206;2023-03-31T02:53:35;5.70;;;1.77;;
11313;SDS011;5712;48.858;9.206;2023-03-31T02:56:12;3.90;;;1.50;;
11313;SDS011;5712;48.858;9.206;2023-03-31T02:58:56;2.53;;;1.47;;
11313;SDS011;5712;48.858;9.206;2023-03-31T03:01:38;3.87;;;1.90;;
11313;SDS011;5712;48.858;9.206;2023-03-31T03:04:22;5.00;;;1.60;;
11313;SDS011;5712;48.858;9.206;2023-03-31T03:07:02;3.13;;;1.50;;
11313;SDS011;5712;48.858;9.206;2023-03-31T03:09:35;3.13;;;1.67;;
11313;SDS011;5712;48.858;9.206;2023-03-31T03:12:12;6.07;;;1.70;;
11313;SDS011;5712;48.858;9.206;2023-03-31T03:14:43;4.33;;;1.60;;
11313;SDS011;5712;48.858;9.206;2023-03-31T03:17:17;5.80;;;2.00;;
11313;SDS011;5712;48.858;9.206;2023-03-31T03:19:51;4.83;;;1.70;;
11313;SDS011;5712;48.858;9.206;2023-03-31T03:22:19;4.17;;;1.93;;
11313;SDS011;5712;48.858;9.206;2023-03-31T03:24:46;3.87;;;1.50;;
11313;SDS011;5712;48.858;9.206;2023-03-31T03:27:13;4.03;;;1.70;;
11313;SDS011;5712;48.858;9.206;2023-03-31T03:29:40;3.00;;;1.70;;
11313;SDS011;5712;48.858;9.206;2023-03-31T03:32:07;6.03;;;2.10;;
11313;SDS011;5712;48.858;9.206;2023-03-31T03:34:36;3.70;;;1.70;;
11313;SDS011;5712;48.858;9.206;2023-03-31T03:37:02;3.70;;;1.67;;
11313;SDS011;5712;48.858;9.206;2023-03-31T03:39:29;2.47;;;1.70;;
11313;SDS011;5712;48.858;9.206;2023-03-31T03:41:56;4.77;;;1.93;;
11313;SDS011;5712;48.858;9.206;2023-03-31T03:44:23;4.03;;;1.97;;
11313;SDS011;5712;48.858;9.206;2023-03-31T03:46:49;3.10;;;1.90;;
11313;SDS011;5712;48.858;9.206;2023-03-31T03:49:16;6.57;;;2.17;;
11313;SDS011;5712;48.858;9.206;2023-03-31T03:51:44;3.47;;;2.03;;
11313;SDS011;5712;48.858;9.206;2023-03-31T03:54:10;3.80;;;1.87;;
11313;SDS011;5712;48.858;9.206;2023-03-31T03:56:37;5.03;;;2.37;;
11313;SDS011;5712;48.858;9.206;2023-03-31T03:59:03;3.73;;;1.80;;
11313;SDS011;5712;48.858;9.206;2023-03-31T04:01:30;4.80;;;2.37;;
11313;SDS011;5712;48.858;9.206;2023-03-31T04:03:56;4.50;;;1.80;;
11313;SDS011;5712;48.858;9.206;2023-03-31T04:06:23;6.00;;;2.00;;
11313;SDS011;5712;48.858;9.206;2023-03-31T04:08:51;5.23;;;2.30;;
11313;SDS011;5712;48.858;9.206;2023-03-31T04:11:18;3.03;;;2.00;;
11313;SDS011;5712;48.858;9.206;2023-03-31T04:13:45;3.57;;;2.07;;
11313;SDS011;5712;48.858;9.206;2023-03-31T04:16:12;4.43;;;2.20;;
11313;SDS011;5712;48.858;9.206;2023-03-31T04:18:40;4.40;;;2.20;;
11313;SDS011;5712;48.858;9.206;2023-03-31T04:21:07;4.30;;;2.00;;
11313;SDS011;5712;48.858;9.206;2023-03-31T04:23:36;6.87;;;2.60;;
11313;SDS011;5712;48.858;9.206;2023-03-31T04:26:08;4.80;;;2.03;;
11313;SDS011;5712;48.858;9.206;2023-03-31T04:28:34;6.90;;;2.60;;
11313;SDS011;5712;48.858;9.206;2023-03-31T04:31:01;6.33;;;2.80;;
11313;SDS011;5712;48.858;9.206;2023-03-31T04:33:30;3.53;;;2.30;;
11313;SDS011;5712;48.858;9.206;2023-03-31T04:35:58;5.53;;;2.60;;
11313;SDS011;5712;48.858;9.206;2023-03-31T04:38:31;5.27;;;2.63;;
11313;SDS011;5712;48.858;9.206;2023-03-31T04:40:58;4.63;;;2.80;;
11313;SDS011;5712;48.858;9.206;2023-03-31T04:43:26;4.13;;;2.67;;
11313;SDS011;5712;48.858;9.206;2023-03-31T04:45:52;5.13;;;2.80;;
11313;SDS011;5712;48.858;9.206;2023-03-31T04:48:19;6.00;;;2.77;;
11313;SDS011;5712;48.858;9.206;2023-03-31T04:50:45;5.33;;;2.57;;
11313;SDS011;5712;48.858;9.206;2023-03-31T04:53:12;5.53;;;2.80;;
11313;SDS011;5712;48.858;9.206;2023-03-31T04:55:38;5.90;;;3.27;;
11313;SDS011;5712;48.858;9.206;2023-03-31T04:58:05;6.07;;;2.97;;
11313;SDS011;5712;48.858;9.206;2023-03-31T05:00:33;7.60;;;2.83;;
11313;SDS011;5712;48.858;9.206;2023-03-31T05:02:59;5.40;;;2.50;;
11313;SDS011;5712;48.858;9.206;2023-03-31T05:05:26;6.30;;;3.23;;
11313;SDS011;5712;48.858;9.206;2023-03-31T05:07:53;5.60;;;2.33;;
11313;SDS011;5712;48.858;9.206;2023-03-31T05:10:20;4.60;;;2.87;;
11313;SDS011;5712;48.858;9.206;2023-03-31T05:12:47;6.20;;;2.53;;
11313;SDS011;5712;48.858;9.206;2023-03-31T05:15:14;5.20;;;2.63;;
11313;SDS011;5712;48.858;9.206;2023-03-31T05:17:42;5.00;;;3.10;;
11313;SDS011;5712;48.858;9.206;2023-03-31T05:20:09;5.67;;;2.67;;
11313;SDS011;5712;48.858;9.206;2023-03-31T05:22:37;4.23;;;2.63;;
11313;SDS011;5712;48.858;9.206;2023-03-31T05:25:06;5.63;;;3.10;;
11313;SDS011;5712;48.858;9.206;2023-03-31T05:27:34;9.47;;;3.27;;
11313;SDS011;5712;48.858;9.206;2023-03-31T05:30:00;7.93;;;4.03;;
11313;SDS011;5712;48.858;9.206;2023-03-31T05:32:27;10.23;;;3.80;;
11313;SDS011;5712;48.858;9.206;2023-03-31T05:34:55;7.97;;;3.80;;
11313;SDS011;5712;48.858;9.206;2023-03-31T05:37:22;6.97;;;3.77;;
11313;SDS011;5712;48.858;9.206;2023-03-31T05:39:50;8.53;;;4.30;;
11313;SDS011;5712;48.858;9.206;2023-03-31T05:42:16;7.40;;;3.50;;
11313;SDS011;5712;48.858;9.206;2023-03-31T05:44:43;8.97;;;4.37;;
11313;SDS011;5712;48.858;9.206;2023-03-31T05:47:10;6.37;;;3.70;;
11313;SDS011;5712;48.858;9.206;2023-03-31T05:49:37;6.77;;;3.73;;
11313;SDS011;5712;48.858;9.206;2023-03-31T05:52:05;5.70;;;3.70;;
11313;SDS011;5712;48.858;9.206;2023-03-31T05:54:32;8.33;;;4.13;;
11313;SDS011;5712;48.858;9.206;2023-03-31T05:56:59;8.37;;;4.23;;
11313;SDS011;5712;48.858;9.206;2023-03-31T05:59:25;8.13;;;4.07;;
11313;SDS011;5712;48.858;9.206;2023-03-31T06:01:52;8.27;;;3.90;;
11313;SDS011;5712;48.858;9.206;2023-03-31T06:04:18;8.63;;;4.10;;
11313;SDS011;5712;48.858;9.206;2023-03-31T06:06:45;8.30;;;4.33;;
11313;SDS011;5712;48.858;9.206;2023-03-31T06:09:15;5.93;;;3.97;;
11313;SDS011;5712;48.858;9.206;2023-03-31T06:11:42;5.00;;;4.00;;
11313;SDS011;5712;48.858;9.206;2023-03-31T06:14:09;7.33;;;3.67;;
11313;SDS011;5712;48.858;9.206;2023-03-31T06:16:35;7.23;;;3.80;;
11313;SDS011;5712;48.858;9.206;2023-03-31T06:19:02;7.87;;;4.53;;
11313;SDS011;5712;48.858;9.206;2023-03-31T06:21:28;6.57;;;4.07;;
11313;SDS011;5712;48.858;9.206;2023-03-31T06:23:55;6.33;;;4.47;;
11313;SDS011;5712;48.858;9.206;2023-03-31T06:26:23;8.30;;;4.73;;
11313;SDS011;5712;48.858;9.206;2023-03-31T06:28:50;8.90;;;5.30;;
11313;SDS011;5712;48.858;9.206;2023-03-31T06:31:17;6.50;;;4.33;;
11313;SDS011;5712;48.858;9.206;2023-03-31T06:33:46;9.00;;;5.00;;
11313;SDS011;5712;48.858;9.206;2023-03-31T06:36:14;8.23;;;4.40;;
11313;SDS011;5712;48.858;9.206;2023-03-31T06:38:42;8.47;;;4.83;;
11313;SDS011;5712;48.858;9.206;2023-03-31T06:41:10;10.43;;;5.23;;
11313;SDS011;5712;48.858;9.206;2023-03-31T06:43:39;10.60;;;5.27;;
11313;SDS011;5712;48.858;9.206;2023-03-31T06:46:06;6.57;;;5.87;;
11313;SDS011;5712;48.858;9.206;2023-03-31T06:48:37;11.93;;;5.83;;
11313;SDS011;5712;48.858;9.206;2023-03-31T06:51:04;13.13;;;6.80;;
11313;SDS011;5712;48.858;9.206;2023-03-31T06:53:32;13.27;;;6.80;;
11313;SDS011;5712;48.858;9.206;2023-03-31T06:55:59;13.73;;;7.30;;
11313;SDS011;5712;48.858;9.206;2023-03-31T06:58:26;11.93;;;7.30;;
11313;SDS011;5712;48.858;9.206;2023-03-31T07:00:54;13.80;;;7.27;;
11313;SDS011;5712;48.858;9.206;2023-03-31T07:03:20;11.73;;;6.97;;
11313;SDS011;5712;48.858;9.206;2023-03-31T07:05:49;9.37;;;6.67;;
11313;SDS011;5712;48.858;9.206;2023-03-31T07:08:15;11.10;;;6.60;;
11313;SDS011;5712;48.858;9.206;2023-03-31T07:10:42;9.53;;;6.67;;
11313;SDS011;5712;48.858;9.206;2023-03-31T07:13:11;10.80;;;5.47;;
11313;SDS011;5712;48.858;9.206;2023-03-31T07:15:38;11.70;;;6.10;;
11313;SDS011;5712;48.858;9.206;2023-03-31T07:18:06;10.67;;;6.17;;
11313;SDS011;5712;48.858;9.206;2023-03-31T07:20:33;9.93;;;5.20;;
11313;SDS011;5712;48.858;9.206;2023-03-31T07:23:02;9.23;;;6.33;;
11313;SDS011;5712;48.858;9.206;2023-03-31T07:25:29;7.00;;;4.67;;
11313;SDS011;5712;48.858;9.206;2023-03-31T07:27:56;10.60;;;5.27;;
11313;SDS011;5712;48.858;9.206;2023-03-31T07:30:23;10.50;;;4.73;;
11313;SDS011;5712;48.858;9.206;2023-03-31T07:32:50;7.53;;;4.60;;
11313;SDS011;5712;48.858;9.206;2023-03-31T07:35:19;11.47;;;4.17;;
11313;SDS011;5712;48.858;9.206;2023-03-31T07:37:48;7.07;;;4.40;;
11313;SDS011;5712;48.858;9.206;2023-03-31T07:40:17;8.03;;;5.00;;
11313;SDS011;5712;48.858;9.206;2023-03-31T07:42:45;5.37;;;4.10;;
11313;SDS011;5712;48.858;9.206;2023-03-31T07:45:13;3.33;;;2.90;;
11313;SDS011;5712;48.858;9.206;2023-03-31T07:47:40;3.00;;;2.70;;
11313;SDS011;5712;48.858;9.206;2023-03-31T07:50:08;3.13;;;2.27;;
11313;SDS011;5712;48.858;9.206;2023-03-31T07:52:36;3.30;;;2.33;;
11313;SDS011;5712;48.858;9.206;2023-03-31T07:55:03;5.30;;;2.57;;
11313;SDS011;5712;48.858;9.206;2023-03-31T07:57:30;3.27;;;2.10;;
11313;SDS011;5712;48.858;9.206;2023-03-31T07:59:57;2.57;;;1.60;;
11313;SDS011;5712;48.858;9.206;2023-03-31T08:02:24;3.40;;;2.13;;
11313;SDS011;5712;48.858;9.206;2023-03-31T08:04:50;2.30;;;1.80;;
11313;SDS011;5712;48.858;9.206;2023-03-31T08:07:17;3.93;;;1.50;;
11313;SDS011;5712;48.858;9.206;2023-03-31T08:09:45;1.90;;;1.50;;
11313;SDS011;5712;48.858;9.206;2023-03-31T08:12:12;1.73;;;1.30;;
11313;SDS011;5712;48.858;9.206;2023-03-31T08:14:39;1.70;;;0.90;;
11313;SDS011;5712;48.858;9.206;2023-03-31T08:17:05;2.10;;;1.30;;
11313;SDS011;5712;48.858;9.206;2023-03-31T08:19:32;2.03;;;1.20;;
11313;SDS011;5712;48.858;9.206;2023-03-31T08:21:59;1.60;;;1.30;;
11313;SDS011;5712;48.858;9.206;2023-03-31T08:24:25;2.00;;;1.10;;
11313;SDS011;5712;48.858;9.206;2023-03-31T08:26:53;1.40;;;1.27;;
11313;SDS011;5712;48.858;9.206;2023-03-31T08:29:20;1.43;;;1.10;;
11313;SDS011;5712;48.858;9.206;2023-03-31T08:31:46;3.23;;;1.33;;
11313;SDS011;5712;48.858;9.206;2023-03-31T08:34:13;4.93;;;1.37;;
11313;SDS011;5712;48.858;9.206;2023-03-31T08:36:39;4.43;;;1.33;;
11313;SDS011;5712;48.858;9.206;2023-03-31T08:39:06;3.20;;;1.33;;
11313;SDS011;5712;48.858;9.206;2023-03-31T08:41:35;3.83;;;1.10;;
11313;SDS011;5712;48.858;9.206;2023-03-31T08:44:12;3.23;;;1.43;;
11313;SDS011;5712;48.858;9.206;2023-03-31T08:46:42;2.23;;;1.13;;
11313;SDS011;5712;48.858;9.206;2023-03-31T08:49:10;1.70;;;1.17;;
11313;SDS011;5712;48.858;9.206;2023-03-31T08:51:40;1.83;;;1.10;;
11313;SDS011;5712;48.858;9.206;2023-03-31T08:54:11;3.60;;;1.20;;
11313;SDS011;5712;48.858;9.206;2023-03-31T08:56:43;4.13;;;1.20;;
11313;SDS011;5712;48.858;9.206;2023-03-31T08:59:17;1.77;;;1.00;;
11313;SDS011;5712;48.858;9.206;2023-03-31T09:01:52;1.30;;;1.13;;
11313;SDS011;5712;48.858;9.206;2023-03-31T09:04:28;1.80;;;0.90;;
11313;SDS011;5712;48.858;9.206;2023-03-31T09:07:12;2.27;;;1.30;;
11313;SDS011;5712;48.858;9.206;2023-03-31T09:09:47;3.20;;;1.30;;
11313;SDS011;5712;48.858;9.206;2023-03-31T09:12:22;8.03;;;1.60;;
11313;SDS011;5712;48.858;9.206;2023-03-31T09:14:56;3.50;;;1.20;;
11313;SDS011;5712;48.858;9.206;2023-03-31T09:17:26;6.90;;;1.67;;
11313;SDS011;5712;48.858;9.206;2023-03-31T09:19:56;4.00;;;1.40;;
11313;SDS011;5712;48.858;9.206;2023-03-31T09:22:27;2.60;;;1.00;;
11313;SDS011;5712;48.858;9.206;2023-03-31T09:24:57;2.63;;;0.90;;
11313;SDS011;5712;48.858;9.206;2023-03-31T09:27:27;3.40;;;1.37;;
11313;SDS011;5712;48.858;9.206;2023-03-31T09:30:00;2.50;;;0.90;;
11313;SDS011;5712;48.858;9.206;2023-03-31T09:32:30;2.83;;;1.20;;
11313;SDS011;5712;48.858;9.206;2023-03-31T09:34:58;2.50;;;1.00;;
11313;SDS011;5712;48.858;9.206;2023-03-31T09:37:29;5.37;;;1.40;;
11313;SDS011;5712;48.858;9.206;2023-03-31T09:39:58;2.80;;;1.20;;
11313;SDS011;5712;48.858;9.206;2023-03-31T09:42:26;2.83;;;1.27;;
11313;SDS011;5712;48.858;9.206;2023-03-31T09:44:52;3.17;;;1.00;;
11313;SDS011;5712;48.858;9.206;2023-03-31T09:47:23;3.87;;;1.20;;
11313;SDS011;5712;48.858;9.206;2023-03-31T09:49:57;4.20;;;1.17;;
11313;SDS011;5712;48.858;9.206;2023-03-31T09:52:25;3.57;;;1.10;;
11313;SDS011;5712;48.858;9.206;2023-03-31T09:54:55;6.27;;;2.00;;
11313;SDS011;5712;48.858;9.206;2023-03-31T09:57:26;5.23;;;1.50;;
11313;SDS011;5712;48.858;9.206;2023-03-31T09:59:53;5.03;;;1.27;;
11313;SDS011;5712;48.858;9.206;2023-03-31T10:02:34;5.10;;;1.40;;
11313;SDS011;5712;48.858;9.206;2023-03-31T10:05:04;2.80;;;1.53;;
11313;SDS011;5712;48.858;9.206;2023-03-31T10:07:33;4.23;;;1.17;;
11313;SDS011;5712;48.858;9.206;2023-03-31T10:10:00;3.77;;;1.20;;
11313;SDS011;5712;48.858;9.206;2023-03-31T10:12:28;4.17;;;1.30;;
11313;SDS011;5712;48.858;9.206;2023-03-31T10:15:10;6.07;;;1.77;;
11313;SDS011;5712;48.858;9.206;2023-03-31T10:17:45;4.57;;;0.90;;
11313;SDS011;5712;48.858;9.206;2023-03-31T10:20:20;4.87;;;1.37;;
11313;SDS011;5712;48.858;9.206;2023-03-31T10:22:58;4.23;;;1.40;;
11313;SDS011;5712;48.858;9.206;2023-03-31T10:25:29;5.60;;;1.60;;
11313;SDS011;5712;48.858;9.206;2023-03-31T10:27:59;4.17;;;1.20;;
11313;SDS011;5712;48.858;9.206;2023-03-31T10:30:29;4.00;;;1.20;;
11313;SDS011;5712;48.858;9.206;2023-03-31T10:33:05;5.07;;;1.50;;
11313;SDS011;5712;48.858;9.206;2023-03-31T10:35:33;4.80;;;1.00;;
11313;SDS011;5712;48.858;9.206;2023-03-31T10:38:02;2.60;;;1.00;;
11313;SDS011;5712;48.858;9.206;2023-03-31T10:40:31;6.93;;;1.60;;
11313;SDS011;5712;48.858;9.206;2023-03-31T10:43:01;4.93;;;1.30;;
11313;SDS011;5712;48.858;9.206;2023-03-31T10:45:35;4.27;;;1.23;;
11313;SDS011;5712;48.858;9.206;2023-03-31T10:48:05;5.10;;;1.20;;
11313;SDS011;5712;48.858;9.206;2023-03-31T10:50:42;2.70;;;1.10;;
11313;SDS011;5712;48.858;9.206;2023-03-31T10:53:10;2.50;;;1.33;;
11313;SDS011;5712;48.858;9.206;2023-03-31T10:55:38;4.37;;;1.40;;
11313;SDS011;5712;48.858;9.206;2023-03-31T10:58:15;3.43;;;1.20;;
11313;SDS011;5712;48.858;9.206;2023-03-31T11:00:55;5.87;;;1.30;;
11313;SDS011;5712;48.858;9.206;2023-03-31T11:03:36;4.70;;;2.10;;
11313;SDS011;5712;48.858;9.206;2023-03-31T11:06:16;4.03;;;1.17;;
11313;SDS011;5712;48.858;9.206;2023-03-31T11:08:52;4.97;;;1.50;;
11313;SDS011;5712;48.858;9.206;2023-03-31T11:11:31;3.83;;;1.10;;
11313;SDS011;5712;48.858;9.206;2023-03-31T11:14:10;5.43;;;1.57;;
11313;SDS011;5712;48.858;9.206;2023-03-31T11:16:44;2.70;;;1.23;;
11313;SDS011;5712;48.858;9.206;2023-03-31T11:19:21;3.80;;;0.97;;
11313;SDS011;5712;48.858;9.206;2023-03-31T11:22:00;4.30;;;1.17;;
11313;SDS011;5712;48.858;9.206;2023-03-31T11:27:33;5.93;;;1.37;;
11313;SDS011;5712;48.858;9.206;2023-03-31T11:30:09;7.93;;;1.00;;
11313;SDS011;5712;48.858;9.206;2023-03-31T11:32:45;2.87;;;0.93;;
11313;SDS011;5712;48.858;9.206;2023-03-31T11:35:22;1.87;;;0.80;;
11313;SDS011;5712;48.858;9.206;2023-03-31T11:38:07;1.00;;;0.40;;
11313;SDS011;5712;48.858;9.206;2023-03-31T11:40:48;1.97;;;0.80;;
11313;SDS011;5712;48.858;9.206;2023-03-31T11:43:26;0.70;;;0.50;;
11313;SDS011;5712;48.858;9.206;2023-03-31T11:45:58;1.90;;;0.70;;
11313;SDS011;5712;48.858;9.206;2023-03-31T11:48:30;1.93;;;0.60;;
11313;SDS011;5712;48.858;9.206;2023-03-31T11:51:02;1.87;;;0.50;;
11313;SDS011;5712;48.858;9.206;2023-03-31T11:53:35;4.87;;;1.07;;
11313;SDS011;5712;48.858;9.206;2023-03-31T11:56:04;0.70;;;0.60;;
11313;SDS011;5712;48.858;9.206;2023-03-31T11:58:35;0.83;;;0.83;;
11313;SDS011;5712;48.858;9.206;2023-03-31T12:01:06;1.30;;;0.50;;
11313;SDS011;5712;48.858;9.206;2023-03-31T12:03:40;3.47;;;0.60;;
11313;SDS011;5712;48.858;9.206;2023-03-31T12:06:14;0.70;;;0.60;;
11313;SDS011;5712;48.858;9.206;2023-03-31T12:08:49;1.00;;;0.40;;
11313;SDS011;5712;48.858;9.206;2023-03-31T12:11:25;0.43;;;0.33;;
11313;SDS011;5712;48.858;9.206;2023-03-31T12:13:57;0.83;;;0.40;;
11313;SDS011;5712;48.858;9.206;2023-03-31T12:16:35;1.97;;;0.30;;
11313;SDS011;5712;48.858;9.206;2023-03-31T12:19:04;0.70;;;0.40;;
11313;SDS011;5712;48.858;9.206;2023-03-31T12:21:35;0.40;;;0.40;;
11313;SDS011;5712;48.858;9.206;2023-03-31T12:24:08;1.63;;;0.50;;
11313;SDS011;5712;48.858;9.206;2023-03-31T12:26:38;0.63;;;0.40;;
11313;SDS011;5712;48.858;9.206;2023-03-31T12:29:16;0.60;;;0.30;;
11313;SDS011;5712;48.858;9.206;2023-03-31T12:31:48;0.47;;;0.40;;
11313;SDS011;5712;48.858;9.206;2023-03-31T12:34:18;0.73;;;0.50;;
11313;SDS011;5712;48.858;9.206;2023-03-31T12:36:54;0.87;;;0.43;;
11313;SDS011;5712;48.858;9.206;2023-03-31T12:39:37;1.53;;;0.57;;
11313;SDS011;5712;48.858;9.206;2023-03-31T12:42:27;2.63;;;0.80;;
11313;SDS011;5712;48.858;9.206;2023-03-31T12:45:05;2.80;;;0.60;;
11313;SDS011;5712;48.858;9.206;2023-03-31T12:47:44;1.73;;;0.50;;
11313;SDS011;5712;48.858;9.206;2023-03-31T12:50:26;1.83;;;0.60;;
11313;SDS011;5712;48.858;9.206;2023-03-31T12:53:10;1.10;;;0.60;;
11313;SDS011;5712;48.858;9.206;2023-03-31T12:55:44;0.87;;;0.50;;
11313;SDS011;5712;48.858;9.206;2023-03-31T13:01:09;1.47;;;0.53;;
11313;SDS011;5712;48.858;9.206;2023-03-31T13:03:47;1.50;;;0.60;;
11313;SDS011;5712;48.858;9.206;2023-03-31T13:12:25;3.63;;;1.03;;
11313;SDS011;5712;48.858;9.206;2023-03-31T13:14:57;4.07;;;1.10;;
11313;SDS011;5712;48.858;9.206;2023-03-31T13:17:30;3.73;;;1.20;;
11313;SDS011;5712;48.858;9.206;2023-03-31T13:20:16;3.23;;;1.00;;
11313;SDS011;5712;48.858;9.206;2023-03-31T13:22:58;2.80;;;0.87;;
11313;SDS011;5712;48.858;9.206;2023-03-31T13:25:38;3.37;;;0.80;;
11313;SDS011;5712;48.858;9.206;2023-03-31T13:28:09;1.93;;;0.80;;
11313;SDS011;5712;48.858;9.206;2023-03-31T13:30:49;2.93;;;0.70;;
11313;SDS011;5712;48.858;9.206;2023-03-31T13:33:20;1.80;;;0.47;;
11313;SDS011;5712;48.858;9.206;2023-03-31T13:35:50;2.50;;;0.70;;
11313;SDS011;5712;48.858;9.206;2023-03-31T13:38:25;1.93;;;0.70;;
11313;SDS011;5712;48.858;9.206;2023-03-31T13:41:14;2.40;;;0.80;;
11313;SDS011;5712;48.858;9.206;2023-03-31T13:43:55;2.57;;;0.60;;
11313;SDS011;5712;48.858;9.206;2023-03-31T13:46:58;1.30;;;0.37;;
11313;SDS011;5712;48.858;9.206;2023-03-31T13:49:49;1.40;;;0.40;;
11313;SDS011;5712;48.858;9.206;2023-03-31T13:52:24;0.33;;;0.33;;
11313;SDS011;5712;48.858;9.206;2023-03-31T13:55:22;1.00;;;0.47;;
11313;SDS011;5712;48.858;9.206;2023-03-31T13:58:17;0.67;;;0.40;;
11313;SDS011;5712;48.858;9.206;2023-03-31T14:00:55;0.80;;;0.30;;
11313;SDS011;5712;48.858;9.206;2023-03-31T14:03:39;0.47;;;0.30;;
11313;SDS011;5712;48.858;9.206;2023-03-31T14:06:22;0.27;;;0.27;;
11313;SDS011;5712;48.858;9.206;2023-03-31T14:08:53;1.10;;;0.40;;
11313;SDS011;5712;48.858;9.206;2023-03-31T14:11:23;0.47;;;0.37;;
11313;SDS011;5712;48.858;9.206;2023-03-31T14:14:00;0.47;;;0.43;;
11313;SDS011;5712;48.858;9.206;2023-03-31T14:16:30;1.37;;;0.40;;
11313;SDS011;5712;48.858;9.206;2023-03-31T14:19:03;1.13;;;0.47;;
11313;SDS011;5712;48.858;9.206;2023-03-31T14:21:45;0.93;;;0.70;;
11313;SDS011;5712;48.858;9.206;2023-03-31T14:24:18;1.30;;;0.57;;
11313;SDS011;5712;48.858;9.206;2023-03-31T14:26:53;1.13;;;0.50;;
11313;SDS011;5712;48.858;9.206;2023-03-31T14:29:32;1.63;;;0.40;;
11313;SDS011;5712;48.858;9.206;2023-03-31T14:32:07;2.93;;;0.70;;
11313;SDS011;5712;48.858;9.206;2023-03-31T14:34:46;1.60;;;0.60;;
11313;SDS011;5712;48.858;9.206;2023-03-31T14:37:21;1.60;;;0.53;;
11313;SDS011;5712;48.858;9.206;2023-03-31T14:39:49;1.00;;;0.50;;
11313;SDS011;5712;48.858;9.206;2023-03-31T14:42:20;0.63;;;0.50;;
11313;SDS011;5712;48.858;9.206;2023-03-31T14:44:53;1.10;;;0.40;;
11313;SDS011;5712;48.858;9.206;2023-03-31T14:47:21;1.40;;;0.47;;
11313;SDS011;5712;48.858;9.206;2023-03-31T14:49:57;0.73;;;0.40;;
11313;SDS011;5712;48.858;9.206;2023-03-31T14:52:28;1.93;;;0.70;;
11313;SDS011;5712;48.858;9.206;2023-03-31T14:54:55;1.47;;;0.50;;
11313;SDS011;5712;48.858;9.206;2023-03-31T14:57:23;1.80;;;0.50;;
11313;SDS011;5712;48.858;9.206;2023-03-31T14:59:54;1.20;;;0.63;;
11313;SDS011;5712;48.858;9.206;2023-03-31T15:02:22;0.40;;;0.40;;
11313;SDS011;5712;48.858;9.206;2023-03-31T15:04:56;0.97;;;0.40;;
11313;SDS011;5712;48.858;9.206;2023-03-31T15:07:23;0.60;;;0.43;;
11313;SDS011;5712;48.858;9.206;2023-03-31T15:09:51;2.07;;;0.43;;
11313;SDS011;5712;48.858;9.206;2023-03-31T15:12:19;1.00;;;0.60;;
11313;SDS011;5712;48.858;9.206;2023-03-31T15:14:48;1.90;;;1.80;;
11313;SDS011;5712;48.858;9.206;2023-03-31T15:17:20;2.47;;;1.50;;
11313;SDS011;5712;48.858;9.206;2023-03-31T15:19:55;1.83;;;1.43;;
11313;SDS011;5712;48.858;9.206;2023-03-31T15:22:23;1.87;;;1.53;;
11313;SDS011;5712;48.858;9.206;2023-03-31T15:24:51;3.20;;;1.60;;
11313;SDS011;5712;48.858;9.206;2023-03-31T15:27:20;2.80;;;1.27;;
11313;SDS011;5712;48.858;9.206;2023-03-31T15:29:57;2.30;;;0.90;;
11313;SDS011;5712;48.858;9.206;2023-03-31T15:32:28;1.13;;;0.70;;
11313;SDS011;5712;48.858;9.206;2023-03-31T15:34:56;1.23;;;0.60;;
11313;SDS011;5712;48.858;9.206;2023-03-31T15:37:25;1.87;;;0.60;;
11313;SDS011;5712;48.858;9.206;2023-03-31T15:39:54;1.33;;;0.80;;
11313;SDS011;5712;48.858;9.206;2023-03-31T15:42:23;3.00;;;0.90;;
11313;SDS011;5712;48.858;9.206;2023-03-31T15:44:52;1.70;;;1.00;;
11313;SDS011;5712;48.858;9.206;2023-03-31T15:47:20;3.27;;;1.20;;
11313;SDS011;5712;48.858;9.206;2023-03-31T15:49:52;1.63;;;0.97;;